sensor_id;sensor_type;location;lat;lon;timestamp;pressure;altitude;pressure_sealevel;temperature;humidity
22753;BME280;11543;43.144;24.684;2022-08-01T00:00:09;98516.72;;;22.68;51.04
22753;BME280;11543;43.144;24.684;2022-08-01T00:02:38;98512.56;;;22.65;51.09
22753;BME280;11543;43.144;24.684;2022-08-01T00:05:05;98516.59;;;22.74;51.09
22753;BME280;11543;43.144;24.684;2022-08-01T00:07:32;98511.38;;;22.61;51.53
22753;BME280;11543;43.144;24.684;2022-08-01T00:09:57;98509.72;;;22.60;51.53
22753;BME280;11543;43.144;24.684;2022-08-01T00:12:23;98486.41;;;22.46;51.01
22753;BME280;11543;43.144;24.684;2022-08-01T00:14:49;98500.19;;;22.51;50.89
22753;BME280;11543;43.144;24.684;2022-08-01T00:17:14;98480.25;;;22.39;50.93
22753;BME280;11543;43.144;24.684;2022-08-01T00:19:40;98492.84;;;22.40;50.87
22753;BME280;11543;43.144;24.684;2022-08-01T00:22:05;98484.31;;;22.24;51.39
22753;BME280;11543;43.144;24.684;2022-08-01T00:24:31;98482.63;;;22.23;51.74
22753;BME280;11543;43.144;24.684;2022-08-01T00:26:56;98478.59;;;22.14;52.01
22753;BME280;11543;43.144;24.684;2022-08-01T00:29:22;98476.94;;;22.13;51.96
22753;BME280;11543;43.144;24.684;2022-08-01T00:31:47;98474.22;;;22.13;51.79
22753;BME280;11543;43.144;24.684;2022-08-01T00:34:13;98478.13;;;22.17;51.48
22753;BME280;11543;43.144;24.684;2022-08-01T00:36:38;98451.88;;;22.05;51.52
22753;BME280;11543;43.144;24.684;2022-08-01T00:39:04;98455.09;;;22.13;51.54
22753;BME280;11543;43.144;24.684;2022-08-01T00:41:29;98466.13;;;22.18;51.23
22753;BME280;11543;43.144;24.684;2022-08-01T00:43:55;98442.97;;;22.09;51.39
22753;BME280;11543;43.144;24.684;2022-08-01T00:46:20;98458.41;;;22.15;51.40
22753;BME280;11543;43.144;24.684;2022-08-01T00:48:46;98450.69;;;22.12;51.48
22753;BME280;11543;43.144;24.684;2022-08-01T00:51:12;98436.78;;;22.02;51.37
22753;BME280;11543;43.144;24.684;2022-08-01T00:53:38;98433.22;;;21.90;51.45
22753;BME280;11543;43.144;24.684;2022-08-01T00:56:04;98445.31;;;21.94;51.48
22753;BME280;11543;43.144;24.684;2022-08-01T00:58:30;98440.13;;;22.04;51.19
22753;BME280;11543;43.144;24.684;2022-08-01T01:00:58;98439.38;;;21.97;50.97
22753;BME280;11543;43.144;24.684;2022-08-01T01:03:23;98436.78;;;22.02;50.78
22753;BME280;11543;43.144;24.684;2022-08-01T01:09:02;98436.31;;;22.05;50.70
22753;BME280;11543;43.144;24.684;2022-08-01T01:11:43;98413.63;;;21.81;50.73
22753;BME280;11543;43.144;24.684;2022-08-01T01:14:20;98429.91;;;21.88;50.18
22753;BME280;11543;43.144;24.684;2022-08-01T01:16:48;98420.75;;;21.94;50.29
22753;BME280;11543;43.144;24.684;2022-08-01T01:19:18;98438.91;;;22.00;49.78
22753;BME280;11543;43.144;24.684;2022-08-01T01:25:17;98435.59;;;21.98;49.44
22753;BME280;11543;43.144;24.684;2022-08-01T01:30:28;98425.41;;;22.05;47.76
22753;BME280;11543;43.144;24.684;2022-08-01T01:32:58;98418.72;;;22.01;48.02
22753;BME280;11543;43.144;24.684;2022-08-01T01:35:28;98433.22;;;22.13;47.89
22753;BME280;11543;43.144;24.684;2022-08-01T01:38:01;98429.06;;;22.22;47.15
22753;BME280;11543;43.144;24.684;2022-08-01T01:40:30;98422.19;;;22.08;47.24
22753;BME280;11543;43.144;24.684;2022-08-01T01:42:56;98421.25;;;22.03;46.63
22753;BME280;11543;43.144;24.684;2022-08-01T01:45:26;98432.16;;;22.14;46.79
22753;BME280;11543;43.144;24.684;2022-08-01T01:47:52;98429.44;;;22.14;46.39
22753;BME280;11543;43.144;24.684;2022-08-01T01:50:23;98416.84;;;22.13;46.44
22753;BME280;11543;43.144;24.684;2022-08-01T01:52:50;98416.50;;;22.10;46.12
22753;BME280;11543;43.144;24.684;2022-08-01T01:55:18;98418.97;;;22.11;45.78
22753;BME280;11543;43.144;24.684;2022-08-01T01:57:47;98418.03;;;22.17;46.03
22753;BME280;11543;43.144;24.684;2022-08-01T02:00:13;98412.06;;;22.20;45.96
22753;BME280;11543;43.144;24.684;2022-08-01T02:02:41;98410.41;;;22.19;45.80
22753;BME280;11543;43.144;24.684;2022-08-01T02:05:09;98396.53;;;22.09;45.95
22753;BME280;11543;43.144;24.684;2022-08-01T02:07:36;98404.81;;;22.26;45.92
22753;BME280;11543;43.144;24.684;2022-08-01T02:10:03;98399.97;;;22.16;45.16
22753;BME280;11543;43.144;24.684;2022-08-01T02:12:33;98410.28;;;22.26;45.59
22753;BME280;11543;43.144;24.684;2022-08-01T02:15:00;98398.78;;;22.12;45.25
22753;BME280;11543;43.144;24.684;2022-08-01T02:17:27;98410.53;;;22.13;45.28
22753;BME280;11543;43.144;24.684;2022-08-01T02:19:54;98405.22;;;22.06;45.02
22753;BME280;11543;43.144;24.684;2022-08-01T02:25:05;98402.09;;;22.14;45.21
22753;BME280;11543;43.144;24.684;2022-08-01T02:27:42;98406.25;;;22.17;45.08
22753;BME280;11543;43.144;24.684;2022-08-01T02:30:11;98405.44;;;22.16;45.15
22753;BME280;11543;43.144;24.684;2022-08-01T02:32:46;98396.16;;;22.17;45.25
22753;BME280;11543;43.144;24.684;2022-08-01T02:35:20;98400.66;;;22.23;44.89
22753;BME280;11543;43.144;24.684;2022-08-01T02:37:48;98408.97;;;22.29;44.87
22753;BME280;11543;43.144;24.684;2022-08-01T02:40:16;98400.56;;;22.18;44.61
22753;BME280;11543;43.144;24.684;2022-08-01T02:42:45;98406.72;;;22.25;44.95
22753;BME280;11543;43.144;24.684;2022-08-01T02:45:13;98398.44;;;22.09;44.64
22753;BME280;11543;43.144;24.684;2022-08-01T02:47:40;98409.00;;;22.05;44.78
22753;BME280;11543;43.144;24.684;2022-08-01T02:50:09;98403.06;;;22.08;44.89
22753;BME280;11543;43.144;24.684;2022-08-01T02:52:37;98399.97;;;22.16;45.20
22753;BME280;11543;43.144;24.684;2022-08-01T02:55:03;98397.13;;;22.11;44.74
22753;BME280;11543;43.144;24.684;2022-08-01T02:57:30;98390.69;;;21.94;44.26
22753;BME280;11543;43.144;24.684;2022-08-01T02:59:58;98383.34;;;21.83;44.71
22753;BME280;11543;43.144;24.684;2022-08-01T03:02:24;98397.47;;;21.91;44.40
22753;BME280;11543;43.144;24.684;2022-08-01T03:04:52;98385.84;;;21.84;44.11
22753;BME280;11543;43.144;24.684;2022-08-01T03:07:19;98403.28;;;21.95;43.90
22753;BME280;11543;43.144;24.684;2022-08-01T03:09:47;98401.25;;;22.02;43.80
22753;BME280;11543;43.144;24.684;2022-08-01T03:12:17;98387.25;;;21.99;43.48
22753;BME280;11543;43.144;24.684;2022-08-01T03:14:46;98385.38;;;21.87;43.52
22753;BME280;11543;43.144;24.684;2022-08-01T03:17:14;98383.47;;;21.88;43.88
22753;BME280;11543;43.144;24.684;2022-08-01T03:19:42;98379.28;;;21.97;43.53
22753;BME280;11543;43.144;24.684;2022-08-01T03:22:11;98374.91;;;21.84;43.20
22753;BME280;11543;43.144;24.684;2022-08-01T03:24:39;98381.22;;;21.85;43.34
22753;BME280;11543;43.144;24.684;2022-08-01T03:27:06;98394.28;;;21.83;43.43
22753;BME280;11543;43.144;24.684;2022-08-01T03:29:32;98409.47;;;22.02;43.42
22753;BME280;11543;43.144;24.684;2022-08-01T03:32:00;98414.47;;;22.05;43.15
22753;BME280;11543;43.144;24.684;2022-08-01T03:34:27;98397.00;;;21.83;43.03
22753;BME280;11543;43.144;24.684;2022-08-01T03:37:05;98423.47;;;21.94;43.35
22753;BME280;11543;43.144;24.684;2022-08-01T03:39:36;98425.03;;;21.90;43.39
22753;BME280;11543;43.144;24.684;2022-08-01T03:42:08;98415.03;;;21.96;43.36
22753;BME280;11543;43.144;24.684;2022-08-01T03:44:37;98391.53;;;21.83;43.05
22753;BME280;11543;43.144;24.684;2022-08-01T03:47:07;98395.47;;;21.87;43.11
22753;BME280;11543;43.144;24.684;2022-08-01T03:49:37;98419.47;;;22.08;43.33
22753;BME280;11543;43.144;24.684;2022-08-01T03:52:05;98428.47;;;21.97;43.44
22753;BME280;11543;43.144;24.684;2022-08-01T03:54:34;98429.66;;;22.01;43.50
22753;BME280;11543;43.144;24.684;2022-08-01T03:57:01;98430.75;;;22.12;43.39
22753;BME280;11543;43.144;24.684;2022-08-01T03:59:29;98421.34;;;21.96;42.96
22753;BME280;11543;43.144;24.684;2022-08-01T04:01:55;98421.59;;;22.06;43.28
22753;BME280;11543;43.144;24.684;2022-08-01T04:04:21;98415.31;;;22.06;43.16
22753;BME280;11543;43.144;24.684;2022-08-01T04:06:46;98413.16;;;22.08;43.27
22753;BME280;11543;43.144;24.684;2022-08-01T04:09:15;98415.88;;;22.19;43.12
22753;BME280;11543;43.144;24.684;2022-08-01T04:11:41;98408.06;;;22.11;42.92
22753;BME280;11543;43.144;24.684;2022-08-01T04:14:07;98419.66;;;22.30;42.91
22753;BME280;11543;43.144;24.684;2022-08-01T04:16:32;98415.84;;;22.31;43.04
22753;BME280;11543;43.144;24.684;2022-08-01T04:18:58;98387.09;;;22.29;42.80
22753;BME280;11543;43.144;24.684;2022-08-01T04:21:25;98412.50;;;22.41;42.97
22753;BME280;11543;43.144;24.684;2022-08-01T04:23:56;98421.28;;;22.43;42.59
22753;BME280;11543;43.144;24.684;2022-08-01T04:26:24;98422.47;;;22.47;42.68
22753;BME280;11543;43.144;24.684;2022-08-01T04:28:52;98424.38;;;22.58;42.70
22753;BME280;11543;43.144;24.684;2022-08-01T04:31:20;98411.78;;;22.57;42.75
22753;BME280;11543;43.144;24.684;2022-08-01T04:33:49;98412.13;;;22.49;42.74
22753;BME280;11543;43.144;24.684;2022-08-01T04:36:18;98423.16;;;22.54;42.95
22753;BME280;11543;43.144;24.684;2022-08-01T04:38:46;98415.09;;;22.59;42.58
22753;BME280;11543;43.144;24.684;2022-08-01T04:41:14;98413.63;;;22.68;42.67
22753;BME280;11543;43.144;24.684;2022-08-01T04:43:40;98422.41;;;22.70;42.55
22753;BME280;11543;43.144;24.684;2022-08-01T04:46:07;98387.25;;;22.62;42.68
22753;BME280;11543;43.144;24.684;2022-08-01T04:48:38;98419.28;;;22.78;42.55
22753;BME280;11543;43.144;24.684;2022-08-01T04:51:10;98413.81;;;22.78;42.45
22753;BME280;11543;43.144;24.684;2022-08-01T04:53:36;98403.59;;;22.85;42.56
22753;BME280;11543;43.144;24.684;2022-08-01T04:56:02;98413.75;;;23.02;42.28
22753;BME280;11543;43.144;24.684;2022-08-01T04:58:27;98413.94;;;23.12;42.39
22753;BME280;11543;43.144;24.684;2022-08-01T05:00:52;98402.31;;;23.05;41.84
22753;BME280;11543;43.144;24.684;2022-08-01T05:03:18;98414.34;;;23.20;42.19
22753;BME280;11543;43.144;24.684;2022-08-01T05:05:43;98399.34;;;23.23;41.95
22753;BME280;11543;43.144;24.684;2022-08-01T05:08:09;98385.50;;;23.13;41.55
22753;BME280;11543;43.144;24.684;2022-08-01T05:10:35;98403.34;;;23.32;41.26
22753;BME280;11543;43.144;24.684;2022-08-01T05:13:00;98392.31;;;23.27;41.26
22753;BME280;11543;43.144;24.684;2022-08-01T05:15:26;98376.47;;;23.29;40.76
22753;BME280;11543;43.144;24.684;2022-08-01T05:17:52;98377.13;;;23.36;41.10
22753;BME280;11543;43.144;24.684;2022-08-01T05:20:17;98403.69;;;23.52;40.32
22753;BME280;11543;43.144;24.684;2022-08-01T05:22:43;98375.34;;;23.59;40.38
22753;BME280;11543;43.144;24.684;2022-08-01T05:25:08;98392.44;;;23.66;39.91
22753;BME280;11543;43.144;24.684;2022-08-01T05:27:34;98385.13;;;23.71;40.12
22753;BME280;11543;43.144;24.684;2022-08-01T05:30:08;98377.81;;;23.77;39.92
22753;BME280;11543;43.144;24.684;2022-08-01T05:32:34;98391.41;;;23.89;39.72
22753;BME280;11543;43.144;24.684;2022-08-01T05:35:00;98370.31;;;23.89;39.71
22753;BME280;11543;43.144;24.684;2022-08-01T05:37:25;98376.38;;;23.91;39.72
22753;BME280;11543;43.144;24.684;2022-08-01T05:39:51;98386.25;;;23.92;39.41
22753;BME280;11543;43.144;24.684;2022-08-01T05:42:16;98363.00;;;23.95;39.67
22753;BME280;11543;43.144;24.684;2022-08-01T05:44:42;98370.59;;;24.09;39.09
22753;BME280;11543;43.144;24.684;2022-08-01T05:47:07;98378.94;;;24.20;39.19
22753;BME280;11543;43.144;24.684;2022-08-01T05:49:33;98389.16;;;24.41;39.03
22753;BME280;11543;43.144;24.684;2022-08-01T05:51:58;98400.56;;;24.55;39.01
22753;BME280;11543;43.144;24.684;2022-08-01T05:54:26;98382.75;;;24.57;38.76
22753;BME280;11543;43.144;24.684;2022-08-01T05:56:51;98383.69;;;24.68;38.59
22753;BME280;11543;43.144;24.684;2022-08-01T05:59:17;98404.41;;;24.81;38.84
22753;BME280;11543;43.144;24.684;2022-08-01T06:01:42;98401.84;;;24.96;38.58
22753;BME280;11543;43.144;24.684;2022-08-01T06:04:08;98389.19;;;24.95;37.87
22753;BME280;11543;43.144;24.684;2022-08-01T06:06:33;98397.31;;;25.06;38.03
22753;BME280;11543;43.144;24.684;2022-08-01T06:08:58;98386.31;;;25.06;38.11
22753;BME280;11543;43.144;24.684;2022-08-01T06:11:24;98397.31;;;25.33;37.61
22753;BME280;11543;43.144;24.684;2022-08-01T06:13:49;98379.22;;;25.37;37.71
22753;BME280;11543;43.144;24.684;2022-08-01T06:16:15;98367.09;;;25.33;36.71
22753;BME280;11543;43.144;24.684;2022-08-01T06:18:41;98389.72;;;25.46;36.79
22753;BME280;11543;43.144;24.684;2022-08-01T06:21:07;98398.09;;;25.61;36.65
22753;BME280;11543;43.144;24.684;2022-08-01T06:23:32;98393.06;;;25.53;36.99
22753;BME280;11543;43.144;24.684;2022-08-01T06:25:57;98384.34;;;25.61;37.03
22753;BME280;11543;43.144;24.684;2022-08-01T06:28:23;98391.06;;;25.75;36.85
22753;BME280;11543;43.144;24.684;2022-08-01T06:30:49;98391.38;;;25.47;37.44
22753;BME280;11543;43.144;24.684;2022-08-01T06:33:14;98386.56;;;25.64;37.13
22753;BME280;11543;43.144;24.684;2022-08-01T06:35:40;98381.47;;;25.78;36.19
22753;BME280;11543;43.144;24.684;2022-08-01T06:38:06;98396.56;;;25.75;36.58
22753;BME280;11543;43.144;24.684;2022-08-01T06:40:31;98382.00;;;25.75;36.49
22753;BME280;11543;43.144;24.684;2022-08-01T06:42:57;98389.50;;;25.89;36.81
22753;BME280;11543;43.144;24.684;2022-08-01T06:45:22;98376.34;;;25.91;36.28
22753;BME280;11543;43.144;24.684;2022-08-01T06:47:49;98378.53;;;25.89;35.72
22753;BME280;11543;43.144;24.684;2022-08-01T06:50:15;98369.72;;;25.87;35.83
22753;BME280;11543;43.144;24.684;2022-08-01T06:52:41;98390.16;;;26.01;35.88
22753;BME280;11543;43.144;24.684;2022-08-01T06:55:07;98375.28;;;25.97;35.79
22753;BME280;11543;43.144;24.684;2022-08-01T06:57:32;98384.13;;;26.05;35.51
22753;BME280;11543;43.144;24.684;2022-08-01T07:00:03;98380.31;;;26.11;35.87
22753;BME280;11543;43.144;24.684;2022-08-01T07:02:31;98388.09;;;26.29;35.77
22753;BME280;11543;43.144;24.684;2022-08-01T07:04:56;98376.50;;;26.17;36.46
22753;BME280;11543;43.144;24.684;2022-08-01T07:07:25;98392.50;;;26.25;35.62
22753;BME280;11543;43.144;24.684;2022-08-01T07:09:51;98389.19;;;26.23;35.59
22753;BME280;11543;43.144;24.684;2022-08-01T07:12:16;98402.41;;;26.26;35.41
22753;BME280;11543;43.144;24.684;2022-08-01T07:14:42;98398.44;;;26.07;35.88
22753;BME280;11543;43.144;24.684;2022-08-01T07:17:07;98380.78;;;25.97;36.34
22753;BME280;11543;43.144;24.684;2022-08-01T07:19:32;98384.69;;;26.07;36.82
22753;BME280;11543;43.144;24.684;2022-08-01T07:21:58;98386.34;;;26.08;36.65
22753;BME280;11543;43.144;24.684;2022-08-01T07:24:24;98389.13;;;26.13;36.80
22753;BME280;11543;43.144;24.684;2022-08-01T07:26:49;98372.38;;;26.19;36.47
22753;BME280;11543;43.144;24.684;2022-08-01T07:29:15;98400.34;;;26.53;36.83
22753;BME280;11543;43.144;24.684;2022-08-01T07:31:41;98392.69;;;26.65;36.49
22753;BME280;11543;43.144;24.684;2022-08-01T07:34:06;98388.25;;;26.59;36.23
22753;BME280;11543;43.144;24.684;2022-08-01T07:36:32;98391.53;;;26.51;36.21
22753;BME280;11543;43.144;24.684;2022-08-01T07:38:57;98404.81;;;26.70;36.44
22753;BME280;11543;43.144;24.684;2022-08-01T07:41:23;98396.81;;;26.68;36.24
22753;BME280;11543;43.144;24.684;2022-08-01T07:43:49;98408.66;;;26.69;36.45
22753;BME280;11543;43.144;24.684;2022-08-01T07:46:15;98382.22;;;26.62;36.22
22753;BME280;11543;43.144;24.684;2022-08-01T07:48:41;98390.50;;;26.67;36.17
22753;BME280;11543;43.144;24.684;2022-08-01T07:51:06;98381.97;;;26.69;36.22
22753;BME280;11543;43.144;24.684;2022-08-01T07:53:33;98391.34;;;26.83;36.21
22753;BME280;11543;43.144;24.684;2022-08-01T07:55:59;98369.06;;;26.85;36.36
22753;BME280;11543;43.144;24.684;2022-08-01T07:58:24;98386.47;;;26.95;35.96
22753;BME280;11543;43.144;24.684;2022-08-01T08:00:50;98381.81;;;27.01;36.11
22753;BME280;11543;43.144;24.684;2022-08-01T08:03:15;98387.06;;;27.13;35.97
22753;BME280;11543;43.144;24.684;2022-08-01T08:05:41;98409.38;;;27.21;35.90
22753;BME280;11543;43.144;24.684;2022-08-01T08:08:07;98396.72;;;27.15;35.99
22753;BME280;11543;43.144;24.684;2022-08-01T08:10:34;98414.38;;;27.40;35.93
22753;BME280;11543;43.144;24.684;2022-08-01T08:13:00;98418.22;;;27.34;35.42
22753;BME280;11543;43.144;24.684;2022-08-01T08:15:26;98413.25;;;27.56;35.60
22753;BME280;11543;43.144;24.684;2022-08-01T08:17:52;98419.38;;;27.83;35.20
22753;BME280;11543;43.144;24.684;2022-08-01T08:20:17;98386.84;;;27.85;34.50
22753;BME280;11543;43.144;24.684;2022-08-01T08:22:43;98404.44;;;28.00;35.09
22753;BME280;11543;43.144;24.684;2022-08-01T08:25:08;98434.22;;;28.13;34.91
22753;BME280;11543;43.144;24.684;2022-08-01T08:27:35;98417.09;;;28.21;34.57
22753;BME280;11543;43.144;24.684;2022-08-01T08:30:02;98392.53;;;28.19;34.44
22753;BME280;11543;43.144;24.684;2022-08-01T08:32:28;98417.59;;;28.43;34.16
22753;BME280;11543;43.144;24.684;2022-08-01T08:34:53;98407.69;;;28.37;34.22
22753;BME280;11543;43.144;24.684;2022-08-01T08:37:19;98407.91;;;28.51;34.35
22753;BME280;11543;43.144;24.684;2022-08-01T08:39:44;98417.72;;;28.82;33.37
22753;BME280;11543;43.144;24.684;2022-08-01T08:42:11;98396.47;;;28.83;33.32
22753;BME280;11543;43.144;24.684;2022-08-01T08:44:37;98419.84;;;29.06;33.74
22753;BME280;11543;43.144;24.684;2022-08-01T08:47:05;98409.16;;;29.33;33.61
22753;BME280;11543;43.144;24.684;2022-08-01T08:49:32;98428.59;;;29.62;32.73
22753;BME280;11543;43.144;24.684;2022-08-01T08:51:59;98400.97;;;29.62;32.38
22753;BME280;11543;43.144;24.684;2022-08-01T08:54:25;98412.59;;;29.59;32.84
22753;BME280;11543;43.144;24.684;2022-08-01T08:56:52;98425.63;;;29.54;32.36
22753;BME280;11543;43.144;24.684;2022-08-01T08:59:19;98410.41;;;29.56;32.07
22753;BME280;11543;43.144;24.684;2022-08-01T09:01:45;98428.59;;;29.62;32.49
22753;BME280;11543;43.144;24.684;2022-08-01T09:04:11;98412.03;;;29.62;32.33
22753;BME280;11543;43.144;24.684;2022-08-01T09:06:37;98407.94;;;29.84;32.16
22753;BME280;11543;43.144;24.684;2022-08-01T09:09:03;98411.41;;;29.99;32.41
22753;BME280;11543;43.144;24.684;2022-08-01T09:11:29;98395.97;;;29.93;31.95
22753;BME280;11543;43.144;24.684;2022-08-01T09:16:33;98399.19;;;30.29;31.80
22753;BME280;11543;43.144;24.684;2022-08-01T09:19:17;98379.16;;;30.42;30.83
22753;BME280;11543;43.144;24.684;2022-08-01T09:21:57;98398.75;;;30.70;31.42
22753;BME280;11543;43.144;24.684;2022-08-01T09:24:25;98403.19;;;30.71;30.97
22753;BME280;11543;43.144;24.684;2022-08-01T09:26:52;98396.06;;;30.65;30.98
22753;BME280;11543;43.144;24.684;2022-08-01T09:29:21;98403.94;;;30.77;30.68
22753;BME280;11543;43.144;24.684;2022-08-01T09:31:47;98396.06;;;30.65;30.77
22753;BME280;11543;43.144;24.684;2022-08-01T09:34:15;98378.63;;;30.64;30.58
22753;BME280;11543;43.144;24.684;2022-08-01T09:36:50;98386.16;;;30.59;31.13
22753;BME280;11543;43.144;24.684;2022-08-01T09:39:18;98396.38;;;30.34;30.97
22753;BME280;11543;43.144;24.684;2022-08-01T09:41:44;98374.59;;;29.99;31.18
22753;BME280;11543;43.144;24.684;2022-08-01T09:44:10;98376.41;;;30.14;31.19
22753;BME280;11543;43.144;24.684;2022-08-01T09:46:35;98379.53;;;30.31;31.48
22753;BME280;11543;43.144;24.684;2022-08-01T09:49:04;98394.09;;;30.41;31.13
22753;BME280;11543;43.144;24.684;2022-08-01T09:51:38;98401.22;;;30.48;31.20
22753;BME280;11543;43.144;24.684;2022-08-01T09:54:05;98388.50;;;30.47;31.77
22753;BME280;11543;43.144;24.684;2022-08-01T09:56:41;98375.78;;;30.46;31.30
22753;BME280;11543;43.144;24.684;2022-08-01T09:59:08;98391.13;;;30.62;31.41
22753;BME280;11543;43.144;24.684;2022-08-01T10:01:45;98369.81;;;30.33;31.28
22753;BME280;11543;43.144;24.684;2022-08-01T10:04:19;98370.13;;;30.56;31.82
22753;BME280;11543;43.144;24.684;2022-08-01T10:06:50;98373.41;;;30.58;31.25
22753;BME280;11543;43.144;24.684;2022-08-01T10:09:35;98401.75;;;30.50;31.39
22753;BME280;11543;43.144;24.684;2022-08-01T10:12:02;98395.00;;;30.61;30.66
22753;BME280;11543;43.144;24.684;2022-08-01T10:14:30;98399.06;;;30.87;30.69
22753;BME280;11543;43.144;24.684;2022-08-01T10:16:58;98388.44;;;30.94;29.99
22753;BME280;11543;43.144;24.684;2022-08-01T10:19:25;98378.50;;;31.12;29.96
22753;BME280;11543;43.144;24.684;2022-08-01T10:21:53;98369.78;;;31.24;30.36
22753;BME280;11543;43.144;24.684;2022-08-01T10:24:23;98384.25;;;31.53;30.02
22753;BME280;11543;43.144;24.684;2022-08-01T10:26:51;98363.47;;;31.70;29.64
22753;BME280;11543;43.144;24.684;2022-08-01T10:29:18;98383.16;;;31.87;29.34
22753;BME280;11543;43.144;24.684;2022-08-01T10:31:46;98379.47;;;32.05;29.59
22753;BME280;11543;43.144;24.684;2022-08-01T10:34:13;98376.53;;;32.15;28.66
22753;BME280;11543;43.144;24.684;2022-08-01T10:36:46;98379.25;;;32.02;28.81
22753;BME280;11543;43.144;24.684;2022-08-01T10:39:13;98366.69;;;31.77;28.75
22753;BME280;11543;43.144;24.684;2022-08-01T10:41:40;98375.63;;;31.55;29.42
22753;BME280;11543;43.144;24.684;2022-08-01T10:44:09;98364.63;;;30.93;30.18
22753;BME280;11543;43.144;24.684;2022-08-01T10:46:38;98379.22;;;30.80;30.56
22753;BME280;11543;43.144;24.684;2022-08-01T10:49:10;98391.44;;;30.79;30.47
22753;BME280;11543;43.144;24.684;2022-08-01T10:51:38;98390.38;;;30.75;30.37
22753;BME280;11543;43.144;24.684;2022-08-01T10:54:08;98380.59;;;30.83;30.36
22753;BME280;11543;43.144;24.684;2022-08-01T10:56:50;98369.81;;;31.00;30.19
22753;BME280;11543;43.144;24.684;2022-08-01T10:59:24;98374.84;;;31.17;29.95
22753;BME280;11543;43.144;24.684;2022-08-01T11:07:17;98370.91;;;31.23;30.59
22753;BME280;11543;43.144;24.684;2022-08-01T11:09:47;98373.78;;;31.50;30.05
22753;BME280;11543;43.144;24.684;2022-08-01T11:12:17;98356.34;;;31.63;29.41
22753;BME280;11543;43.144;24.684;2022-08-01T11:17:36;98368.56;;;31.95;29.73
22753;BME280;11543;43.144;24.684;2022-08-01T11:20:19;98361.63;;;32.11;29.12
22753;BME280;11543;43.144;24.684;2022-08-01T11:30:52;98342.28;;;32.61;28.25
22753;BME280;11543;43.144;24.684;2022-08-01T11:41:24;98332.97;;;33.07;27.24
22753;BME280;11543;43.144;24.684;2022-08-01T11:49:48;98321.97;;;33.02;27.79
22753;BME280;11543;43.144;24.684;2022-08-01T11:52:30;98330.81;;;33.26;27.31
22753;BME280;11543;43.144;24.684;2022-08-01T11:57:28;98319.84;;;33.43;27.37
22753;BME280;11543;43.144;24.684;2022-08-01T12:00:02;98324.81;;;33.55;27.05
22753;BME280;11543;43.144;24.684;2022-08-01T12:02:31;98323.50;;;33.52;26.56
22753;BME280;11543;43.144;24.684;2022-08-01T12:05:09;98338.03;;;33.49;26.90
22753;BME280;11543;43.144;24.684;2022-08-01T12:07:37;98328.38;;;33.47;27.40
22753;BME280;11543;43.144;24.684;2022-08-01T12:10:08;98322.88;;;33.55;27.55
22753;BME280;11543;43.144;24.684;2022-08-01T12:12:34;98325.31;;;33.57;26.42
22753;BME280;11543;43.144;24.684;2022-08-01T12:15:02;98301.78;;;33.32;26.92
22753;BME280;11543;43.144;24.684;2022-08-01T12:20:04;98325.13;;;33.09;26.98
22753;BME280;11543;43.144;24.684;2022-08-01T12:22:30;98315.47;;;32.92;27.54
22753;BME280;11543;43.144;24.684;2022-08-01T12:25:05;98296.97;;;32.74;27.92
22753;BME280;11543;43.144;24.684;2022-08-01T12:27:31;98296.31;;;32.55;28.19
22753;BME280;11543;43.144;24.684;2022-08-01T12:29:57;98295.44;;;32.82;27.91
22753;BME280;11543;43.144;24.684;2022-08-01T12:34:50;98288.44;;;32.84;28.27
22753;BME280;11543;43.144;24.684;2022-08-01T12:37:16;98282.13;;;32.92;27.34
22753;BME280;11543;43.144;24.684;2022-08-01T12:39:44;98284.84;;;32.70;27.60
22753;BME280;11543;43.144;24.684;2022-08-01T12:42:10;98309.28;;;32.59;27.81
22753;BME280;11543;43.144;24.684;2022-08-01T12:44:40;98294.78;;;32.21;27.99
22753;BME280;11543;43.144;24.684;2022-08-01T12:47:07;98280.38;;;31.78;28.35
22753;BME280;11543;43.144;24.684;2022-08-01T12:49:35;98309.56;;;31.76;28.98
22753;BME280;11543;43.144;24.684;2022-08-01T12:52:02;98292.31;;;31.79;29.44
22753;BME280;11543;43.144;24.684;2022-08-01T12:54:28;98280.94;;;31.61;29.08
22753;BME280;11543;43.144;24.684;2022-08-01T12:56:54;98292.03;;;31.61;29.47
22753;BME280;11543;43.144;24.684;2022-08-01T12:59:27;98286.34;;;31.72;29.25
22753;BME280;11543;43.144;24.684;2022-08-01T13:01:54;98293.53;;;32.00;28.99
22753;BME280;11543;43.144;24.684;2022-08-01T13:04:21;98301.69;;;32.10;28.33
22753;BME280;11543;43.144;24.684;2022-08-01T13:06:48;98292.31;;;32.06;28.26
22753;BME280;11543;43.144;24.684;2022-08-01T13:09:18;98279.34;;;31.88;28.42
22753;BME280;11543;43.144;24.684;2022-08-01T13:11:43;98287.56;;;31.79;28.70
22753;BME280;11543;43.144;24.684;2022-08-01T13:14:26;98293.13;;;31.93;29.13
22753;BME280;11543;43.144;24.684;2022-08-01T13:16:52;98289.13;;;31.99;29.23
22753;BME280;11543;43.144;24.684;2022-08-01T13:19:18;98288.41;;;32.21;28.87
22753;BME280;11543;43.144;24.684;2022-08-01T13:21:54;98292.13;;;32.44;27.75
22753;BME280;11543;43.144;24.684;2022-08-01T13:24:25;98280.59;;;32.50;27.74
22753;BME280;11543;43.144;24.684;2022-08-01T13:26:56;98280.78;;;32.54;27.52
22753;BME280;11543;43.144;24.684;2022-08-01T13:29:38;98278.94;;;32.49;27.66
22753;BME280;11543;43.144;24.684;2022-08-01T13:32:16;98289.47;;;32.39;27.25
22753;BME280;11543;43.144;24.684;2022-08-01T13:34:42;98269.00;;;32.35;27.25
22753;BME280;11543;43.144;24.684;2022-08-01T13:37:08;98280.09;;;32.35;27.52
22753;BME280;11543;43.144;24.684;2022-08-01T13:39:34;98251.63;;;32.15;27.66
22753;BME280;11543;43.144;24.684;2022-08-01T13:42:09;98262.53;;;32.25;27.64
22753;BME280;11543;43.144;24.684;2022-08-01T13:44:35;98264.75;;;32.51;27.93